sensor_id;sensor_type;location;lat;lon;timestamp;P1;durP1;ratioP1;P2;durP2;ratioP2
13592;SDS011;6867;50.998;4.250;2023-06-22T00:02:15;7.28;;;4.88;;
13592;SDS011;6867;50.998;4.250;2023-06-22T00:04:42;6.05;;;4.53;;
13592;SDS011;6867;50.998;4.250;2023-06-22T00:07:09;6.07;;;4.47;;
13592;SDS011;6867;50.998;4.250;2023-06-22T00:09:36;5.55;;;4.93;;
13592;SDS011;6867;50.998;4.250;2023-06-22T00:12:03;7.32;;;4.90;;
13592;SDS011;6867;50.998;4.250;2023-06-22T00:14:30;8.93;;;5.60;;
13592;SDS011;6867;50.998;4.250;2023-06-22T00:16:58;9.43;;;5.22;;
13592;SDS011;6867;50.998;4.250;2023-06-22T00:19:25;8.65;;;5.43;;
13592;SDS011;6867;50.998;4.250;2023-06-22T00:21:51;7.78;;;4.90;;
13592;SDS011;6867;50.998;4.250;2023-06-22T00:24:18;7.18;;;4.82;;
13592;SDS011;6867;50.998;4.250;2023-06-22T00:26:45;7.40;;;5.03;;
13592;SDS011;6867;50.998;4.250;2023-06-22T00:29:12;6.53;;;5.40;;
13592;SDS011;6867;50.998;4.250;2023-06-22T00:31:39;6.63;;;4.85;;
13592;SDS011;6867;50.998;4.250;2023-06-22T00:34:07;8.02;;;5.28;;
13592;SDS011;6867;50.998;4.250;2023-06-22T00:36:34;6.35;;;5.38;;
13592;SDS011;6867;50.998;4.250;2023-06-22T00:39:01;6.82;;;4.88;;
13592;SDS011;6867;50.998;4.250;2023-06-22T00:41:28;7.18;;;5.55;;
13592;SDS011;6867;50.998;4.250;2023-06-22T00:43:55;6.97;;;4.72;;
13592;SDS011;6867;50.998;4.250;2023-06-22T00:46:21;6.30;;;5.15;;
13592;SDS011;6867;50.998;4.250;2023-06-22T00:48:49;12.32;;;5.43;;
13592;SDS011;6867;50.998;4.250;2023-06-22T00:51:19;5.63;;;4.53;;
13592;SDS011;6867;50.998;4.250;2023-06-22T00:53:49;7.78;;;5.05;;
13592;SDS011;6867;50.998;4.250;2023-06-22T00:56:16;7.53;;;4.75;;
13592;SDS011;6867;50.998;4.250;2023-06-22T00:58:44;5.63;;;4.47;;
13592;SDS011;6867;50.998;4.250;2023-06-22T01:01:12;7.47;;;4.60;;
13592;SDS011;6867;50.998;4.250;2023-06-22T01:03:39;7.95;;;4.40;;
13592;SDS011;6867;50.998;4.250;2023-06-22T01:06:07;5.30;;;4.32;;
13592;SDS011;6867;50.998;4.250;2023-06-22T01:08:39;10.25;;;4.35;;
13592;SDS011;6867;50.998;4.250;2023-06-22T01:11:14;5.80;;;4.85;;
13592;SDS011;6867;50.998;4.250;2023-06-22T01:13:48;5.20;;;4.70;;
13592;SDS011;6867;50.998;4.250;2023-06-22T01:16:19;9.10;;;4.82;;
13592;SDS011;6867;50.998;4.250;2023-06-22T01:18:50;7.15;;;4.93;;
13592;SDS011;6867;50.998;4.250;2023-06-22T01:21:21;8.35;;;5.47;;
13592;SDS011;6867;50.998;4.250;2023-06-22T01:23:59;7.65;;;5.55;;
13592;SDS011;6867;50.998;4.250;2023-06-22T01:26:37;7.65;;;4.63;;
13592;SDS011;6867;50.998;4.250;2023-06-22T01:29:10;7.38;;;4.75;;
13592;SDS011;6867;50.998;4.250;2023-06-22T01:31:39;7.05;;;4.88;;
13592;SDS011;6867;50.998;4.250;2023-06-22T01:34:07;5.75;;;4.50;;
13592;SDS011;6867;50.998;4.250;2023-06-22T01:36:35;6.60;;;4.90;;
13592;SDS011;6867;50.998;4.250;2023-06-22T01:39:04;7.13;;;5.05;;
13592;SDS011;6867;50.998;4.250;2023-06-22T01:41:33;6.00;;;4.85;;
13592;SDS011;6867;50.998;4.250;2023-06-22T01:44:01;6.60;;;4.93;;
13592;SDS011;6867;50.998;4.250;2023-06-22T01:46:31;7.90;;;5.43;;
13592;SDS011;6867;50.998;4.250;2023-06-22T01:48:58;7.65;;;5.10;;
13592;SDS011;6867;50.998;4.250;2023-06-22T01:51:25;8.00;;;5.22;;
13592;SDS011;6867;50.998;4.250;2023-06-22T01:53:52;7.85;;;5.72;;
13592;SDS011;6867;50.998;4.250;2023-06-22T01:56:19;10.48;;;5.70;;
13592;SDS011;6867;50.998;4.250;2023-06-22T01:58:48;11.07;;;5.82;;
13592;SDS011;6867;50.998;4.250;2023-06-22T02:01:23;10.13;;;6.38;;
13592;SDS011;6867;50.998;4.250;2023-06-22T02:03:58;7.05;;;5.72;;
13592;SDS011;6867;50.998;4.250;2023-06-22T02:06:31;8.07;;;5.30;;
13592;SDS011;6867;50.998;4.250;2023-06-22T02:09:04;9.25;;;5.45;;
13592;SDS011;6867;50.998;4.250;2023-06-22T02:11:35;8.45;;;5.32;;
13592;SDS011;6867;50.998;4.250;2023-06-22T02:14:03;8.35;;;5.07;;
13592;SDS011;6867;50.998;4.250;2023-06-22T02:16:31;7.57;;;5.20;;
13592;SDS011;6867;50.998;4.250;2023-06-22T02:19:00;7.88;;;5.10;;
13592;SDS011;6867;50.998;4.250;2023-06-22T02:21:29;6.88;;;4.97;;
13592;SDS011;6867;50.998;4.250;2023-06-22T02:23:56;8.95;;;5.25;;
13592;SDS011;6867;50.998;4.250;2023-06-22T02:26:23;7.95;;;5.45;;
13592;SDS011;6867;50.998;4.250;2023-06-22T02:28:51;8.15;;;5.63;;
13592;SDS011;6867;50.998;4.250;2023-06-22T02:31:18;7.70;;;5.10;;
13592;SDS011;6867;50.998;4.250;2023-06-22T02:33:45;10.63;;;5.30;;
13592;SDS011;6867;50.998;4.250;2023-06-22T02:36:13;7.25;;;5.15;;
13592;SDS011;6867;50.998;4.250;2023-06-22T02:38:40;9.55;;;5.70;;
13592;SDS011;6867;50.998;4.250;2023-06-22T02:41:10;7.85;;;4.70;;
13592;SDS011;6867;50.998;4.250;2023-06-22T02:43:38;9.90;;;5.43;;
13592;SDS011;6867;50.998;4.250;2023-06-22T02:46:04;6.97;;;5.45;;
13592;SDS011;6867;50.998;4.250;2023-06-22T02:48:31;8.32;;;5.38;;
13592;SDS011;6867;50.998;4.250;2023-06-22T02:50:58;8.07;;;5.30;;
13592;SDS011;6867;50.998;4.250;2023-06-22T02:53:26;8.02;;;5.78;;
13592;SDS011;6867;50.998;4.250;2023-06-22T02:55:52;7.10;;;5.20;;
13592;SDS011;6867;50.998;4.250;2023-06-22T02:58:19;7.93;;;5.78;;
13592;SDS011;6867;50.998;4.250;2023-06-22T03:00:46;8.13;;;5.72;;
13592;SDS011;6867;50.998;4.250;2023-06-22T03:03:13;9.63;;;5.35;;
13592;SDS011;6867;50.998;4.250;2023-06-22T03:05:39;9.40;;;5.85;;
13592;SDS011;6867;50.998;4.250;2023-06-22T03:08:06;7.10;;;5.60;;
13592;SDS011;6867;50.998;4.250;2023-06-22T03:10:34;8.20;;;5.80;;
13592;SDS011;6867;50.998;4.250;2023-06-22T03:13:01;8.88;;;5.72;;
13592;SDS011;6867;50.998;4.250;2023-06-22T03:15:27;7.93;;;5.60;;
13592;SDS011;6867;50.998;4.250;2023-06-22T03:17:56;10.88;;;5.53;;
13592;SDS011;6867;50.998;4.250;2023-06-22T03:20:23;8.00;;;5.53;;
13592;SDS011;6867;50.998;4.250;2023-06-22T03:22:51;9.13;;;6.15;;
13592;SDS011;6867;50.998;4.250;2023-06-22T03:25:18;11.80;;;5.57;;
13592;SDS011;6867;50.998;4.250;2023-06-22T03:27:46;8.65;;;5.90;;
13592;SDS011;6867;50.998;4.250;2023-06-22T03:30:14;8.65;;;5.68;;
13592;SDS011;6867;50.998;4.250;2023-06-22T03:32:41;8.43;;;6.18;;
13592;SDS011;6867;50.998;4.250;2023-06-22T03:35:08;7.40;;;5.50;;
13592;SDS011;6867;50.998;4.250;2023-06-22T03:37:39;12.52;;;6.35;;
13592;SDS011;6867;50.998;4.250;2023-06-22T03:40:06;7.68;;;6.03;;
13592;SDS011;6867;50.998;4.250;2023-06-22T03:42:34;8.35;;;5.85;;
13592;SDS011;6867;50.998;4.250;2023-06-22T03:45:02;9.07;;;6.10;;
13592;SDS011;6867;50.998;4.250;2023-06-22T03:47:30;10.20;;;6.78;;
13592;SDS011;6867;50.998;4.250;2023-06-22T03:49:56;10.43;;;6.57;;
13592;SDS011;6867;50.998;4.250;2023-06-22T03:52:23;8.48;;;6.45;;
13592;SDS011;6867;50.998;4.250;2023-06-22T03:54:50;9.20;;;6.05;;
13592;SDS011;6867;50.998;4.250;2023-06-22T03:57:17;12.82;;;6.68;;
13592;SDS011;6867;50.998;4.250;2023-06-22T03:59:43;10.00;;;6.22;;
13592;SDS011;6867;50.998;4.250;2023-06-22T04:02:11;13.52;;;6.50;;
13592;SDS011;6867;50.998;4.250;2023-06-22T04:04:38;11.50;;;6.43;;
13592;SDS011;6867;50.998;4.250;2023-06-22T04:07:05;10.48;;;6.25;;
13592;SDS011;6867;50.998;4.250;2023-06-22T04:09:32;14.40;;;7.10;;
13592;SDS011;6867;50.998;4.250;2023-06-22T04:11:58;10.48;;;6.35;;
13592;SDS011;6867;50.998;4.250;2023-06-22T04:14:25;7.57;;;6.05;;
13592;SDS011;6867;50.998;4.250;2023-06-22T04:16:52;12.65;;;7.10;;
13592;SDS011;6867;50.998;4.250;2023-06-22T04:19:20;14.75;;;6.90;;
13592;SDS011;6867;50.998;4.250;2023-06-22T04:21:47;10.32;;;6.13;;
13592;SDS011;6867;50.998;4.250;2023-06-22T04:24:13;9.18;;;5.97;;
13592;SDS011;6867;50.998;4.250;2023-06-22T04:26:40;9.43;;;6.40;;
13592;SDS011;6867;50.998;4.250;2023-06-22T04:29:07;11.15;;;6.18;;
13592;SDS011;6867;50.998;4.250;2023-06-22T04:31:34;10.57;;;6.05;;
13592;SDS011;6867;50.998;4.250;2023-06-22T04:34:02;8.25;;;5.60;;
13592;SDS011;6867;50.998;4.250;2023-06-22T04:36:33;8.90;;;5.90;;
13592;SDS011;6867;50.998;4.250;2023-06-22T04:39:03;9.82;;;5.88;;
13592;SDS011;6867;50.998;4.250;2023-06-22T04:41:34;8.52;;;5.93;;
13592;SDS011;6867;50.998;4.250;2023-06-22T04:44:08;7.78;;;5.95;;
13592;SDS011;6867;50.998;4.250;2023-06-22T04:46:35;8.88;;;5.95;;
13592;SDS011;6867;50.998;4.250;2023-06-22T04:49:04;12.60;;;6.03;;
13592;SDS011;6867;50.998;4.250;2023-06-22T04:51:36;7.82;;;6.63;;
13592;SDS011;6867;50.998;4.250;2023-06-22T04:54:04;9.48;;;5.85;;
13592;SDS011;6867;50.998;4.250;2023-06-22T04:56:31;9.23;;;6.38;;
13592;SDS011;6867;50.998;4.250;2023-06-22T04:58:58;8.82;;;5.95;;
13592;SDS011;6867;50.998;4.250;2023-06-22T05:01:24;7.53;;;5.47;;
13592;SDS011;6867;50.998;4.250;2023-06-22T05:03:52;11.07;;;6.30;;
13592;SDS011;6867;50.998;4.250;2023-06-22T05:06:20;7.93;;;6.10;;
13592;SDS011;6867;50.998;4.250;2023-06-22T05:08:51;10.93;;;6.00;;
13592;SDS011;6867;50.998;4.250;2023-06-22T05:11:17;7.65;;;5.88;;
13592;SDS011;6867;50.998;4.250;2023-06-22T05:13:44;11.77;;;7.03;;
13592;SDS011;6867;50.998;4.250;2023-06-22T05:16:11;11.98;;;6.85;;
13592;SDS011;6867;50.998;4.250;2023-06-22T05:18:37;11.98;;;7.07;;
13592;SDS011;6867;50.998;4.250;2023-06-22T05:21:04;9.10;;;6.50;;
13592;SDS011;6867;50.998;4.250;2023-06-22T05:23:31;7.82;;;6.05;;
13592;SDS011;6867;50.998;4.250;2023-06-22T05:25:59;7.95;;;6.05;;
13592;SDS011;6867;50.998;4.250;2023-06-22T05:28:25;11.02;;;7.13;;
13592;SDS011;6867;50.998;4.250;2023-06-22T05:30:52;9.60;;;5.60;;
13592;SDS011;6867;50.998;4.250;2023-06-22T05:33:19;9.20;;;6.55;;
13592;SDS011;6867;50.998;4.250;2023-06-22T05:35:46;7.72;;;6.00;;
13592;SDS011;6867;50.998;4.250;2023-06-22T05:38:13;9.88;;;6.75;;
13592;SDS011;6867;50.998;4.250;2023-06-22T05:40:40;9.80;;;6.85;;
13592;SDS011;6867;50.998;4.250;2023-06-22T05:43:08;11.07;;;6.85;;
13592;SDS011;6867;50.998;4.250;2023-06-22T05:45:34;9.82;;;7.63;;
13592;SDS011;6867;50.998;4.250;2023-06-22T05:48:01;9.27;;;6.53;;
13592;SDS011;6867;50.998;4.250;2023-06-22T05:50:28;9.07;;;6.75;;
13592;SDS011;6867;50.998;4.250;2023-06-22T05:52:55;9.45;;;6.60;;
13592;SDS011;6867;50.998;4.250;2023-06-22T05:55:21;7.20;;;5.97;;
13592;SDS011;6867;50.998;4.250;2023-06-22T05:57:48;12.27;;;7.88;;
13592;SDS011;6867;50.998;4.250;2023-06-22T06:00:17;14.82;;;8.68;;
13592;SDS011;6867;50.998;4.250;2023-06-22T06:02:44;11.63;;;7.85;;
13592;SDS011;6867;50.998;4.250;2023-06-22T06:05:11;8.52;;;7.25;;
13592;SDS011;6867;50.998;4.250;2023-06-22T06:07:38;11.40;;;8.70;;
13592;SDS011;6867;50.998;4.250;2023-06-22T06:10:05;12.48;;;8.48;;
13592;SDS011;6867;50.998;4.250;2023-06-22T06:12:33;13.15;;;8.77;;
13592;SDS011;6867;50.998;4.250;2023-06-22T06:15:00;16.48;;;8.70;;
13592;SDS011;6867;50.998;4.250;2023-06-22T06:17:28;14.57;;;9.07;;
13592;SDS011;6867;50.998;4.250;2023-06-22T06:19:55;10.93;;;8.88;;
13592;SDS011;6867;50.998;4.250;2023-06-22T06:22:21;11.05;;;9.23;;
13592;SDS011;6867;50.998;4.250;2023-06-22T06:24:48;13.02;;;9.65;;
13592;SDS011;6867;50.998;4.250;2023-06-22T06:27:15;11.32;;;9.20;;
13592;SDS011;6867;50.998;4.250;2023-06-22T06:29:44;14.93;;;10.30;;
13592;SDS011;6867;50.998;4.250;2023-06-22T06:32:13;16.80;;;10.10;;
13592;SDS011;6867;50.998;4.250;2023-06-22T06:34:41;13.98;;;10.07;;
13592;SDS011;6867;50.998;4.250;2023-06-22T06:37:08;15.75;;;9.45;;
13592;SDS011;6867;50.998;4.250;2023-06-22T06:39:35;15.70;;;9.38;;
13592;SDS011;6867;50.998;4.250;2023-06-22T06:42:02;11.80;;;9.52;;
13592;SDS011;6867;50.998;4.250;2023-06-22T06:44:29;14.27;;;10.25;;
13592;SDS011;6867;50.998;4.250;2023-06-22T06:46:55;11.80;;;9.32;;
13592;SDS011;6867;50.998;4.250;2023-06-22T06:49:22;13.50;;;9.70;;
13592;SDS011;6867;50.998;4.250;2023-06-22T06:51:51;13.30;;;10.55;;
13592;SDS011;6867;50.998;4.250;2023-06-22T06:54:17;12.45;;;9.52;;
13592;SDS011;6867;50.998;4.250;2023-06-22T06:56:46;13.63;;;10.40;;
13592;SDS011;6867;50.998;4.250;2023-06-22T06:59:13;12.98;;;10.15;;
13592;SDS011;6867;50.998;4.250;2023-06-22T07:01:40;13.75;;;10.65;;
13592;SDS011;6867;50.998;4.250;2023-06-22T07:04:07;14.40;;;11.25;;
13592;SDS011;6867;50.998;4.250;2023-06-22T07:06:34;15.73;;;11.70;;
13592;SDS011;6867;50.998;4.250;2023-06-22T07:09:02;15.68;;;12.60;;
13592;SDS011;6867;50.998;4.250;2023-06-22T07:11:29;16.10;;;12.57;;
13592;SDS011;6867;50.998;4.250;2023-06-22T07:13:55;14.35;;;10.95;;
13592;SDS011;6867;50.998;4.250;2023-06-22T07:16:22;16.75;;;11.88;;
13592;SDS011;6867;50.998;4.250;2023-06-22T07:18:50;15.38;;;12.77;;
13592;SDS011;6867;50.998;4.250;2023-06-22T07:21:17;16.60;;;13.07;;
13592;SDS011;6867;50.998;4.250;2023-06-22T07:23:44;18.67;;;14.35;;
13592;SDS011;6867;50.998;4.250;2023-06-22T07:26:12;18.42;;;13.38;;
13592;SDS011;6867;50.998;4.250;2023-06-22T07:28:38;15.00;;;12.93;;
13592;SDS011;6867;50.998;4.250;2023-06-22T07:31:06;17.77;;;12.98;;
13592;SDS011;6867;50.998;4.250;2023-06-22T07:33:32;14.50;;;13.00;;
13592;SDS011;6867;50.998;4.250;2023-06-22T07:35:59;16.95;;;13.20;;
13592;SDS011;6867;50.998;4.250;2023-06-22T07:38:26;16.95;;;13.20;;
13592;SDS011;6867;50.998;4.250;2023-06-22T07:40:52;20.33;;;14.43;;
13592;SDS011;6867;50.998;4.250;2023-06-22T07:43:20;16.90;;;13.07;;
13592;SDS011;6867;50.998;4.250;2023-06-22T07:45:50;19.40;;;14.15;;
13592;SDS011;6867;50.998;4.250;2023-06-22T07:48:19;21.17;;;14.85;;
13592;SDS011;6867;50.998;4.250;2023-06-22T07:50:46;20.00;;;14.52;;
13592;SDS011;6867;50.998;4.250;2023-06-22T07:53:13;16.80;;;14.02;;
13592;SDS011;6867;50.998;4.250;2023-06-22T07:55:39;15.70;;;13.90;;
13592;SDS011;6867;50.998;4.250;2023-06-22T07:58:06;14.88;;;13.32;;
13592;SDS011;6867;50.998;4.250;2023-06-22T08:00:34;20.17;;;13.20;;
13592;SDS011;6867;50.998;4.250;2023-06-22T08:03:01;16.45;;;13.93;;
13592;SDS011;6867;50.998;4.250;2023-06-22T08:05:28;16.50;;;13.30;;
13592;SDS011;6867;50.998;4.250;2023-06-22T08:07:55;15.93;;;13.85;;
13592;SDS011;6867;50.998;4.250;2023-06-22T08:10:22;16.88;;;13.23;;
13592;SDS011;6867;50.998;4.250;2023-06-22T08:12:48;18.67;;;13.20;;
13592;SDS011;6867;50.998;4.250;2023-06-22T08:15:16;13.45;;;11.63;;
13592;SDS011;6867;50.998;4.250;2023-06-22T08:17:45;18.27;;;13.00;;
13592;SDS011;6867;50.998;4.250;2023-06-22T08:20:11;16.88;;;13.30;;
13592;SDS011;6867;50.998;4.250;2023-06-22T08:22:38;15.55;;;11.93;;
13592;SDS011;6867;50.998;4.250;2023-06-22T08:25:05;14.88;;;12.57;;
13592;SDS011;6867;50.998;4.250;2023-06-22T08:27:32;17.42;;;12.45;;
13592;SDS011;6867;50.998;4.250;2023-06-22T08:30:00;17.38;;;13.32;;
13592;SDS011;6867;50.998;4.250;2023-06-22T08:32:27;19.23;;;11.85;;
13592;SDS011;6867;50.998;4.250;2023-06-22T08:34:56;14.10;;;12.48;;
13592;SDS011;6867;50.998;4.250;2023-06-22T08:37:23;16.42;;;11.40;;
13592;SDS011;6867;50.998;4.250;2023-06-22T08:39:55;16.67;;;12.50;;
13592;SDS011;6867;50.998;4.250;2023-06-22T08:42:22;15.43;;;11.90;;
13592;SDS011;6867;50.998;4.250;2023-06-22T08:44:50;14.85;;;11.70;;
13592;SDS011;6867;50.998;4.250;2023-06-22T08:47:18;15.43;;;11.80;;
13592;SDS011;6867;50.998;4.250;2023-06-22T08:49:44;17.20;;;11.90;;
13592;SDS011;6867;50.998;4.250;2023-06-22T08:52:13;14.48;;;11.45;;
13592;SDS011;6867;50.998;4.250;2023-06-22T08:54:40;13.23;;;11.35;;
13592;SDS011;6867;50.998;4.250;2023-06-22T08:57:07;16.25;;;12.57;;
13592;SDS011;6867;50.998;4.250;2023-06-22T08:59:34;14.48;;;10.70;;
13592;SDS011;6867;50.998;4.250;2023-06-22T09:02:00;13.98;;;11.63;;
13592;SDS011;6867;50.998;4.250;2023-06-22T09:04:27;14.27;;;12.38;;
13592;SDS011;6867;50.998;4.250;2023-06-22T09:06:54;15.98;;;13.05;;
13592;SDS011;6867;50.998;4.250;2023-06-22T09:09:22;17.95;;;12.95;;
13592;SDS011;6867;50.998;4.250;2023-06-22T09:11:48;14.55;;;12.00;;
13592;SDS011;6867;50.998;4.250;2023-06-22T09:14:15;14.10;;;12.13;;
13592;SDS011;6867;50.998;4.250;2023-06-22T09:16:42;14.27;;;11.40;;
13592;SDS011;6867;50.998;4.250;2023-06-22T09:19:09;13.30;;;11.23;;
13592;SDS011;6867;50.998;4.250;2023-06-22T09:21:36;14.68;;;11.50;;
13592;SDS011;6867;50.998;4.250;2023-06-22T09:24:03;16.17;;;11.63;;
13592;SDS011;6867;50.998;4.250;2023-06-22T09:26:31;16.55;;;11.63;;
13592;SDS011;6867;50.998;4.250;2023-06-22T09:28:58;13.38;;;11.98;;
13592;SDS011;6867;50.998;4.250;2023-06-22T09:31:25;11.98;;;10.00;;
13592;SDS011;6867;50.998;4.250;2023-06-22T09:33:52;14.23;;;11.20;;
13592;SDS011;6867;50.998;4.250;2023-06-22T09:36:19;14.68;;;11.55;;
13592;SDS011;6867;50.998;4.250;2023-06-22T09:38:47;13.43;;;10.88;;
13592;SDS011;6867;50.998;4.250;2023-06-22T09:41:20;17.30;;;11.27;;
13592;SDS011;6867;50.998;4.250;2023-06-22T09:43:49;14.85;;;10.85;;
13592;SDS011;6867;50.998;4.250;2023-06-22T09:46:15;13.13;;;11.77;;
13592;SDS011;6867;50.998;4.250;2023-06-22T09:48:42;14.82;;;10.52;;
13592;SDS011;6867;50.998;4.250;2023-06-22T09:51:09;11.50;;;10.18;;
13592;SDS011;6867;50.998;4.250;2023-06-22T09:53:36;13.88;;;12.30;;
13592;SDS011;6867;50.998;4.250;2023-06-22T09:56:03;13.98;;;11.70;;
13592;SDS011;6867;50.998;4.250;2023-06-22T09:58:31;18.40;;;13.13;;
13592;SDS011;6867;50.998;4.250;2023-06-22T10:00:59;17.85;;;14.25;;
13592;SDS011;6867;50.998;4.250;2023-06-22T10:03:26;16.35;;;13.77;;
13592;SDS011;6867;50.998;4.250;2023-06-22T10:05:52;18.92;;;14.02;;
13592;SDS011;6867;50.998;4.250;2023-06-22T10:08:19;20.65;;;16.25;;
13592;SDS011;6867;50.998;4.250;2023-06-22T10:10:46;19.42;;;16.02;;
13592;SDS011;6867;50.998;4.250;2023-06-22T10:13:12;22.52;;;17.02;;
13592;SDS011;6867;50.998;4.250;2023-06-22T10:15:40;22.30;;;17.85;;
13592;SDS011;6867;50.998;4.250;2023-06-22T10:18:08;23.55;;;18.88;;
13592;SDS011;6867;50.998;4.250;2023-06-22T10:20:34;27.63;;;19.33;;
13592;SDS011;6867;50.998;4.250;2023-06-22T10:23:01;24.35;;;19.80;;
13592;SDS011;6867;50.998;4.250;2023-06-22T10:25:28;30.60;;;20.17;;
13592;SDS011;6867;50.998;4.250;2023-06-22T10:27:55;25.45;;;21.02;;
13592;SDS011;6867;50.998;4.250;2023-06-22T10:30:22;31.50;;;22.95;;
13592;SDS011;6867;50.998;4.250;2023-06-22T10:32:49;32.05;;;23.38;;
13592;SDS011;6867;50.998;4.250;2023-06-22T10:35:17;32.30;;;21.17;;
13592;SDS011;6867;50.998;4.250;2023-06-22T10:37:44;33.05;;;21.80;;
13592;SDS011;6867;50.998;4.250;2023-06-22T10:40:12;30.00;;;21.05;;
13592;SDS011;6867;50.998;4.250;2023-06-22T10:42:40;37.67;;;22.05;;
13592;SDS011;6867;50.998;4.250;2023-06-22T10:45:07;30.25;;;21.40;;
13592;SDS011;6867;50.998;4.250;2023-06-22T10:47:34;29.17;;;21.77;;
13592;SDS011;6867;50.998;4.250;2023-06-22T10:50:02;31.35;;;22.92;;
13592;SDS011;6867;50.998;4.250;2023-06-22T10:52:30;33.03;;;22.77;;
13592;SDS011;6867;50.998;4.250;2023-06-22T10:54:57;34.33;;;25.55;;
13592;SDS011;6867;50.998;4.250;2023-06-22T10:57:24;32.88;;;23.92;;
13592;SDS011;6867;50.998;4.250;2023-06-22T10:59:51;36.72;;;24.77;;
13592;SDS011;6867;50.998;4.250;2023-06-22T11:02:17;37.55;;;25.45;;
13592;SDS011;6867;50.998;4.250;2023-06-22T11:04:44;37.17;;;25.98;;
13592;SDS011;6867;50.998;4.250;2023-06-22T11:07:11;41.35;;;27.33;;
13592;SDS011;6867;50.998;4.250;2023-06-22T11:09:39;40.13;;;26.08;;
13592;SDS011;6867;50.998;4.250;2023-06-22T11:12:06;37.83;;;27.85;;
13592;SDS011;6867;50.998;4.250;2023-06-22T11:14:33;40.65;;;28.90;;
13592;SDS011;6867;50.998;4.250;2023-06-22T11:17:00;37.83;;;27.38;;
13592;SDS011;6867;50.998;4.250;2023-06-22T11:19:26;41.92;;;28.42;;
13592;SDS011;6867;50.998;4.250;2023-06-22T11:21:53;42.67;;;28.75;;
13592;SDS011;6867;50.998;4.250;2023-06-22T11:24:20;40.78;;;28.15;;
13592;SDS011;6867;50.998;4.250;2023-06-22T11:26:48;41.08;;;29.95;;
13592;SDS011;6867;50.998;4.250;2023-06-22T11:29:15;41.10;;;29.63;;
13592;SDS011;6867;50.998;4.250;2023-06-22T11:31:41;48.30;;;30.90;;
13592;SDS011;6867;50.998;4.250;2023-06-22T11:34:08;40.85;;;28.05;;
13592;SDS011;6867;50.998;4.250;2023-06-22T11:36:36;35.00;;;26.92;;
13592;SDS011;6867;50.998;4.250;2023-06-22T11:39:03;39.03;;;27.92;;
13592;SDS011;6867;50.998;4.250;2023-06-22T11:41:30;40.13;;;27.45;;
13592;SDS011;6867;50.998;4.250;2023-06-22T11:43:58;42.13;;;29.85;;
13592;SDS011;6867;50.998;4.250;2023-06-22T11:46:24;42.08;;;28.55;;
13592;SDS011;6867;50.998;4.250;2023-06-22T11:48:51;41.10;;;29.48;;
13592;SDS011;6867;50.998;4.250;2023-06-22T11:51:18;43.13;;;29.95;;
13592;SDS011;6867;50.998;4.250;2023-06-22T11:53:45;40.80;;;28.80;;
13592;SDS011;6867;50.998;4.250;2023-06-22T11:56:11;45.25;;;30.92;;
13592;SDS011;6867;50.998;4.250;2023-06-22T11:58:38;46.38;;;31.48;;
13592;SDS011;6867;50.998;4.250;2023-06-22T12:01:06;42.30;;;28.70;;
13592;SDS011;6867;50.998;4.250;2023-06-22T12:03:33;46.75;;;29.48;;
13592;SDS011;6867;50.998;4.250;2023-06-22T12:05:59;42.83;;;29.23;;
13592;SDS011;6867;50.998;4.250;2023-06-22T12:08:26;47.78;;;30.95;;
13592;SDS011;6867;50.998;4.250;2023-06-22T12:10:53;46.42;;;30.50;;
13592;SDS011;6867;50.998;4.250;2023-06-22T12:13:20;44.63;;;30.58;;
13592;SDS011;6867;50.998;4.250;2023-06-22T12:15:46;46.15;;;29.55;;
13592;SDS011;6867;50.998;4.250;2023-06-22T12:18:17;44.13;;;28.35;;
13592;SDS011;6867;50.998;4.250;2023-06-22T12:20:45;40.42;;;27.60;;
13592;SDS011;6867;50.998;4.250;2023-06-22T12:23:12;40.58;;;28.35;;
13592;SDS011;6867;50.998;4.250;2023-06-22T12:25:39;41.10;;;28.02;;
13592;SDS011;6867;50.998;4.250;2023-06-22T12:28:06;38.85;;;26.65;;
13592;SDS011;6867;50.998;4.250;2023-06-22T12:30:32;44.35;;;27.60;;
13592;SDS011;6867;50.998;4.250;2023-06-22T12:32:59;44.90;;;28.67;;
13592;SDS011;6867;50.998;4.250;2023-06-22T12:35:27;42.70;;;28.25;;
13592;SDS011;6867;50.998;4.250;2023-06-22T12:37:54;43.53;;;27.67;;
13592;SDS011;6867;50.998;4.250;2023-06-22T12:40:21;43.70;;;28.98;;
13592;SDS011;6867;50.998;4.250;2023-06-22T12:42:47;42.72;;;30.00;;
13592;SDS011;6867;50.998;4.250;2023-06-22T12:45:14;44.70;;;31.13;;
13592;SDS011;6867;50.998;4.250;2023-06-22T12:47:41;45.45;;;29.98;;
13592;SDS011;6867;50.998;4.250;2023-06-22T12:50:08;41.55;;;29.95;;
13592;SDS011;6867;50.998;4.250;2023-06-22T12:52:39;43.70;;;30.25;;
13592;SDS011;6867;50.998;4.250;2023-06-22T12:55:06;44.42;;;30.33;;
13592;SDS011;6867;50.998;4.250;2023-06-22T12:57:33;46.40;;;29.95;;
13592;SDS011;6867;50.998;4.250;2023-06-22T13:00:00;40.75;;;28.17;;
13592;SDS011;6867;50.998;4.250;2023-06-22T13:02:27;45.38;;;29.48;;
13592;SDS011;6867;50.998;4.250;2023-06-22T13:04:54;41.63;;;29.35;;
13592;SDS011;6867;50.998;4.250;2023-06-22T13:07:21;45.80;;;30.55;;
13592;SDS011;6867;50.998;4.250;2023-06-22T13:09:49;43.35;;;29.40;;
13592;SDS011;6867;50.998;4.250;2023-06-22T13:12:17;43.55;;;30.25;;
13592;SDS011;6867;50.998;4.250;2023-06-22T13:14:45;43.08;;;30.38;;
13592;SDS011;6867;50.998;4.250;2023-06-22T13:17:12;47.47;;;29.50;;
13592;SDS011;6867;50.998;4.250;2023-06-22T13:19:39;43.53;;;30.95;;
13592;SDS011;6867;50.998;4.250;2023-06-22T13:22:09;47.70;;;31.00;;
13592;SDS011;6867;50.998;4.250;2023-06-22T13:24:54;49.08;;;31.90;;
13592;SDS011;6867;50.998;4.250;2023-06-22T13:27:21;45.25;;;31.25;;
13592;SDS011;6867;50.998;4.250;2023-06-22T13:29:47;45.35;;;32.15;;
13592;SDS011;6867;50.998;4.250;2023-06-22T13:32:14;44.45;;;30.42;;
13592;SDS011;6867;50.998;4.250;2023-06-22T13:34:41;47.53;;;30.95;;
13592;SDS011;6867;50.998;4.250;2023-06-22T13:37:08;41.25;;;32.05;;
13592;SDS011;6867;50.998;4.250;2023-06-22T13:39:35;46.45;;;32.05;;
13592;SDS011;6867;50.998;4.250;2023-06-22T13:42:03;46.95;;;31.30;;
13592;SDS011;6867;50.998;4.250;2023-06-22T13:44:30;71.80;;;34.15;;
13592;SDS011;6867;50.998;4.250;2023-06-22T13:46:57;46.80;;;32.20;;
13592;SDS011;6867;50.998;4.250;2023-06-22T13:49:24;47.30;;;32.65;;
13592;SDS011;6867;50.998;4.250;2023-06-22T13:51:50;48.30;;;35.03;;
13592;SDS011;6867;50.998;4.250;2023-06-22T13:54:17;57.13;;;37.15;;
13592;SDS011;6867;50.998;4.250;2023-06-22T13:56:43;54.53;;;38.72;;
13592;SDS011;6867;50.998;4.250;2023-06-22T13:59:11;54.42;;;38.97;;
13592;SDS011;6867;50.998;4.250;2023-06-22T14:01:38;56.00;;;39.35;;
13592;SDS011;6867;50.998;4.250;2023-06-22T14:04:06;61.08;;;40.97;;
13592;SDS011;6867;50.998;4.250;2023-06-22T14:06:32;60.28;;;40.85;;
13592;SDS011;6867;50.998;4.250;2023-06-22T14:08:59;65.18;;;40.15;;
13592;SDS011;6867;50.998;4.250;2023-06-22T14:11:26;61.83;;;44.47;;
13592;SDS011;6867;50.998;4.250;2023-06-22T14:13:52;63.70;;;42.38;;
13592;SDS011;6867;50.998;4.250;2023-06-22T14:16:20;68.57;;;44.50;;
13592;SDS011;6867;50.998;4.250;2023-06-22T14:18:47;67.70;;;44.95;;
13592;SDS011;6867;50.998;4.250;2023-06-22T14:21:14;71.00;;;45.78;;
13592;SDS011;6867;50.998;4.250;2023-06-22T14:23:40;69.82;;;46.42;;
13592;SDS011;6867;50.998;4.250;2023-06-22T14:26:07;74.15;;;45.72;;
13592;SDS011;6867;50.998;4.250;2023-06-22T14:28:34;73.15;;;45.50;;
13592;SDS011;6867;50.998;4.250;2023-06-22T14:31:00;72.72;;;47.60;;
13592;SDS011;6867;50.998;4.250;2023-06-22T14:33:28;83.97;;;48.38;;
13592;SDS011;6867;50.998;4.250;2023-06-22T14:35:55;77.95;;;49.35;;
13592;SDS011;6867;50.998;4.250;2023-06-22T14:38:22;77.78;;;47.88;;
13592;SDS011;6867;50.998;4.250;2023-06-22T14:40:48;77.93;;;48.00;;
13592;SDS011;6867;50.998;4.250;2023-06-22T14:43:15;76.13;;;48.22;;
13592;SDS011;6867;50.998;4.250;2023-06-22T14:45:41;74.80;;;46.25;;
13592;SDS011;6867;50.998;4.250;2023-06-22T14:48:08;73.20;;;46.92;;